Time;durP1;ratioP1;P1;durP2;ratioP2;P2;SDS_P1;SDS_P2;PMS_P1;PMS_P2;Temp;Humidity;BMP_temperature;BMP_pressure;BME280_temperature;BME280_humidity;BME280_pressure;Samples;Min_cycle;Max_cycle;Signal;HPM_P1;HPM_P2
2022/08/10 00:00:35;;;;;;;0.60;0.60;;;;;;;18.80;60.59;102586.97;4993290;28;20402;-86
2022/08/10 00:03:00;;;;;;;0.60;0.60;;;;;;;18.77;58.34;102580.91;4991543;28;20367;-87
2022/08/10 00:05:26;;;;;;;0.70;0.70;;;;;;;18.74;58.42;102583.59;4994625;23;20055;-87
2022/08/10 00:07:52;;;;;;;;;;;;;;;18.72;58.74;102580.13;4990500;28;20054;-86
2022/08/10 00:10:19;;;;;;;;;;;;;;;18.68;58.87;102577.59;4990380;28;19921;-87
2022/08/10 00:12:44;;;;;;;;;;;;;;;18.64;60.79;102577.66;4990354;28;20012;-87
2022/08/10 00:15:10;;;;;;;;;;;;;;;18.59;59.91;102580.41;4990501;28;19960;-86
2022/08/10 00:17:36;;;;;;;;;;;;;;;18.52;61.34;102576.19;4991063;28;19914;-87
2022/08/10 00:20:02;;;;;;;;;;;;;;;18.48;59.98;102575.38;4989890;28;20373;-87
2022/08/10 00:22:27;;;;;;;;;;;;;;;18.45;60.63;102574.59;4990882;28;20434;-87
2022/08/10 00:24:56;;;;;;;;;;;;;;;18.42;59.55;102572.00;4993134;28;19914;-87
2022/08/10 00:27:21;;;;;;;;;;;;;;;18.39;61.28;102566.81;4993300;28;20008;-86
2022/08/10 00:29:46;;;;;;;;;;;;;;;18.36;60.30;102570.38;4994636;28;20071;-87
2022/08/10 00:32:11;;;;;;;;;;;;;;;18.33;60.00;102567.81;4993959;28;19914;-86
2022/08/10 00:34:37;;;;;;;;;;;;;;;18.32;60.17;102571.31;4977890;28;19921;-87
2022/08/10 00:37:02;;;;;;;;;;;;;;;18.28;60.16;102567.91;4974086;28;19918;-87
2022/08/10 00:39:28;;;;;;;;;;;;;;;18.26;60.48;102564.44;4974768;28;20009;-87
2022/08/10 00:41:53;;;;;;;;;;;;;;;18.23;61.01;102559.25;4973779;28;19914;-86
2022/08/10 00:44:19;;;;;;;;;;;;;;;18.21;60.45;102555.78;4974274;28;20251;-86
2022/08/10 00:46:44;;;;;;;;;;;;;;;18.19;60.43;102561.06;4985986;28;20361;-86
2022/08/10 00:49:09;;;;;;;;;;;;;;;18.16;60.28;102555.00;4992885;28;19918;-87
2022/08/10 00:51:34;;;;;;;;;;;;;;;18.16;60.54;102557.63;4993952;28;19913;-87
2022/08/10 00:53:59;;;;;;;;;;;;;;;18.11;60.31;102549.84;4993168;28;19914;-86
2022/08/10 00:56:25;;;;;;;;;;;;;;;18.10;60.36;102561.25;4992938;28;19914;-86
2022/08/10 00:58:51;;;;;;;;;;;;;;;18.08;60.27;102562.19;4993257;28;20293;-86
2022/08/10 01:01:16;;;;;;;;;;;;;;;18.06;60.46;102555.19;4992825;28;19918;-86
2022/08/10 01:03:41;;;;;;;;;;;;;;;18.04;60.12;102558.75;4992847;28;19943;-87
2022/08/10 01:06:12;;;;;;;;;;;;;;;18.01;59.92;102556.19;4993081;28;19921;-87
2022/08/10 01:08:43;;;;;;;;;;;;;;;17.99;62.10;102550.09;4993008;28;19913;-87
2022/08/10 01:11:13;;;;;;;;;;;;;;;17.93;61.35;102552.81;4993875;28;19921;-86
2022/08/10 01:13:38;;;;;;;;;;;;;;;17.90;61.80;102556.38;4992661;28;19917;-87
2022/08/10 01:16:10;;;;;;;;;;;;;;;17.85;61.13;102553.78;4992828;28;19914;-87
2022/08/10 01:18:41;;;;;;;;;;;;;;;17.83;60.92;102544.22;4993214;28;20004;-87
2022/08/10 01:21:24;;;;;;;;;;;;;;;17.80;60.95;102550.41;4992797;28;19928;-86
2022/08/10 01:23:52;;;;;;;;;;;;;;;17.75;61.76;102545.25;4992300;28;19918;-87
2022/08/10 01:26:35;;;;;;;;;;;;;;;17.71;61.25;102546.19;4993212;28;19918;-87
2022/08/10 01:29:20;;;;;;;;;;;;;;;17.66;61.47;102544.53;4992704;28;19920;-87
2022/08/10 01:31:50;;;;;;;;;;;;;;;17.63;61.45;102552.47;4991612;28;19921;-87
2022/08/10 01:34:21;;;;;;;;;;;;;;;17.57;61.96;102549.06;4977846;28;19914;-87
2022/08/10 01:36:51;;;;;;;;;;;;;;;17.53;62.32;102547.38;4973135;28;19914;-87
2022/08/10 01:39:22;;;;;;;;;;;;;;;17.48;62.83;102543.09;4983925;28;19953;-87
2022/08/10 01:41:49;;;;;;;;;;;;;;;17.44;62.50;102552.78;4992772;28;20004;-87
2022/08/10 01:44:22;;;;;;;;;;;;;;;17.43;62.18;102548.44;4991978;28;19921;-87
2022/08/10 01:46:51;;;;;;;;;;;;;;;17.40;62.39;102551.09;4993147;28;19972;-87
2022/08/10 01:49:18;;;;;;;;;;;;;;;17.39;62.51;102549.38;4992417;28;19913;-86
2022/08/10 01:51:51;;;;;;;;;;;;;;;17.37;62.22;102549.41;4992320;28;20331;-87
2022/08/10 01:54:23;;;;;;;;;;;;;;;17.35;63.52;102551.16;4992853;28;20361;-87
2022/08/10 01:56:51;;;;;;;;;;;;;;;17.31;62.25;102546.88;4992789;28;19913;-88
2022/08/10 01:59:30;;;;;;;;;;;;;;;17.26;64.27;102546.09;4991917;28;19952;-87
2022/08/10 02:02:00;;;;;;;;;;;;;;;17.19;63.39;102547.09;4992278;28;20332;-86
2022/08/10 02:04:26;;;;;;;;;;;;;;;17.18;65.64;102550.59;4992155;28;19956;-87
2022/08/10 02:06:52;;;;;;;;;;;;;;;17.14;63.28;102555.03;4991350;28;20335;-87
2022/08/10 02:09:29;;;;;;;;;;;;;;;17.12;63.42;102548.94;4992922;28;19913;-86
2022/08/10 02:11:56;;;;;;;;;;;;;;;17.09;63.99;102547.22;4972392;28;20340;-87
2022/08/10 02:14:23;;;;;;;;;;;;;;;17.07;64.49;102553.38;4973226;28;19963;-86
2022/08/10 02:16:50;;;;;;;;;;;;;;;17.03;63.34;102547.31;4972676;28;20316;-87
2022/08/10 02:19:17;;;;;;;;;;;;;;;17.02;63.06;102540.31;4983962;28;19918;-87
2022/08/10 02:21:44;;;;;;;;;;;;;;;16.99;63.66;102540.41;4991354;28;19948;-87
2022/08/10 02:24:12;;;;;;;;;;;;;;;16.96;64.64;102536.03;4991905;28;20403;-87
2022/08/10 02:26:38;;;;;;;;;;;;;;;16.92;63.82;102528.22;4991359;28;19935;-86
2022/08/10 02:29:04;;;;;;;;;;;;;;;16.89;63.43;102537.00;4991878;28;19917;-87
2022/08/10 02:31:29;;;;;;;;;;;;;;;16.88;63.53;102537.03;4992090;28;20349;-87
2022/08/10 02:33:56;;;;;;;;;;;;;;;16.84;66.06;102533.56;4974838;28;19917;-87
2022/08/10 02:36:21;;;;;;;;;;;;;;;16.80;63.97;102538.00;4972774;28;19918;-87
2022/08/10 02:38:48;;;;;;;;;;;;;;;16.77;64.53;102542.44;4984096;28;20031;-88
2022/08/10 02:41:15;;;;;;;;;;;;;;;16.75;63.78;102537.22;4991205;28;19978;-86
2022/08/10 02:43:52;;;;;;;;;;;;;;;16.74;63.91;102540.72;4991381;28;20254;-86
2022/08/10 02:46:23;;;;;;;;;;;;;;;16.72;63.77;102537.25;4991236;28;19961;-86
2022/08/10 02:48:53;;;;;;;;;;;;;;;16.71;64.51;102551.25;4991321;28;19920;-86
2022/08/10 02:51:25;;;;;;;;;;;;;;;16.67;64.92;102539.94;4991781;28;20336;-85
2022/08/10 02:53:52;;;;;;;;;;;;;;;16.64;64.05;102534.72;4991086;28;19952;-85
2022/08/10 02:56:27;;;;;;;;;;;;;;;16.61;65.46;102536.53;4991595;28;19918;-87
2022/08/10 02:59:07;;;;;;;;;;;;;;;16.57;65.17;102532.19;4991643;28;20274;-86
2022/08/10 03:01:34;;;;;;;;;;;;;;;16.55;64.88;102527.00;4990816;28;20014;-86
2022/08/10 03:04:03;;;;;;;;;;;;;;;16.51;64.51;102523.56;4990674;28;19918;-86
2022/08/10 03:06:37;;;;;;;;;;;;;;;16.50;65.50;102519.19;4991660;28;20376;-87
2022/08/10 03:09:05;;;;;;;;;;;;;;;16.44;66.68;102516.66;4991216;28;19917;-86
2022/08/10 03:11:32;;;;;;;;;;;;;;;16.41;66.34;102513.19;4991952;28;19914;-87
2022/08/10 03:13:58;;;;;;;;;;;;;;;16.39;65.68;102513.22;4991476;28;19921;-87
2022/08/10 03:16:25;;;;;;;;;;;;;;;16.37;66.00;102507.13;4992949;28;19944;-87
2022/08/10 03:18:51;;;;;;;;;;;;;;;16.35;66.40;102508.91;4979414;28;19921;-86
2022/08/10 03:21:17;;;;;;;;;;;;;;;16.31;67.75;102508.09;4972302;28;20278;-86
2022/08/10 03:23:43;;;;;;;;;;;;;;;16.27;65.94;102508.16;4981957;28;19913;-87
2022/08/10 03:26:10;;;;;;;;;;;;;;;16.26;65.76;102503.78;4990965;28;20000;-87
2022/08/10 03:28:35;;;;;;;;;;;;;;;16.24;67.62;102510.78;4992058;28;19920;-86
2022/08/10 03:31:01;;;;;;;;;;;;;;;16.19;66.96;102514.38;4990415;28;19914;-86
2022/08/10 03:33:28;;;;;;;;;;;;;;;16.17;67.38;102515.25;4975585;28;19953;-87
2022/08/10 03:35:53;;;;;;;;;;;;;;;16.14;67.75;102505.69;4971595;28;20420;-87
2022/08/10 03:38:19;;;;;;;;;;;;;;;16.13;67.73;102509.19;4971412;28;19910;-86
2022/08/10 03:40:46;;;;;;;;;;;;;;;16.13;66.69;102508.31;4981683;28;19924;-86
2022/08/10 03:43:19;;;;;;;;;;;;;;;16.12;66.60;102511.81;4990138;28;19982;-86
2022/08/10 03:45:48;;;;;;;;;;;;;;;16.11;67.81;102507.47;4990728;28;19924;-86
2022/08/10 03:48:15;;;;;;;;;;;;;;;16.07;67.92;102517.13;4991516;28;19920;-87
2022/08/10 03:50:40;;;;;;;;;;;;;;;16.03;67.95;102512.78;4990416;28;19961;-86
2022/08/10 03:53:11;;;;;;;;;;;;;;;16.01;67.42;102507.59;4990655;28;19947;-86
2022/08/10 03:55:43;;;;;;;;;;;;;;;16.02;67.79;102521.53;4986691;28;19963;-86
2022/08/10 03:58:09;;;;;;;;;;;;;;;15.99;67.23;102516.31;4984940;28;19965;-86
2022/08/10 04:00:34;;;;;;;;;;;;;;;15.99;66.86;102521.56;4993998;28;19972;-86
2022/08/10 04:03:12;;;;;;;;;;;;;;;16.01;67.03;102522.41;4979136;28;19925;-86
2022/08/10 04:05:37;;;;;;;;;;;;;;;15.99;67.62;102521.56;4979801;28;19918;-85
2022/08/10 04:08:03;;;;;;;;;;;;;;;15.98;66.70;102517.22;4993669;28;19967;-85
2022/08/10 04:10:28;;;;;;;;;;;;;;;15.97;66.83;102515.50;4994147;28;19941;-87
2022/08/10 04:12:54;;;;;;;;;;;;;;;15.95;66.87;102518.09;4992844;28;19925;-86
2022/08/10 04:15:19;;;;;;;;;;;;;;;15.96;66.55;102513.75;4993652;28;19925;-86
2022/08/10 04:17:44;;;;;;;;;;;;;;;15.95;68.47;102518.09;4993976;28;19921;-86
2022/08/10 04:20:16;;;;;;;;;;;;;;;15.92;67.79;102519.91;4993466;28;19920;-87
2022/08/10 04:22:42;;;;;;;;;;;;;;;15.88;67.27;102525.16;4993978;28;20372;-87
2022/08/10 04:25:09;;;;;;;;;;;;;;;15.88;66.90;102521.69;4993761;28;19914;-87
2022/08/10 04:27:34;;;;;;;;;;;;;;;15.88;66.74;102527.78;4993671;28;20058;-87
2022/08/10 04:30:00;;;;;;;;;;;;;;;15.88;67.49;102516.47;4993699;28;19955;-87
2022/08/10 04:32:42;;;;;;;;;;;;;;;15.87;66.84;102522.56;5042031;28;19912;-86
2022/08/10 04:35:09;;;;;;;;;;;;;;;15.87;67.21;102528.69;5076245;28;20273;-86
2022/08/10 04:37:38;;;;;;;;;;;;;;;15.86;68.58;102526.06;5075336;28;19912;-86
2022/08/10 04:40:04;;;;;;;;;;;;;;;15.83;67.45;102528.69;5075440;28;19924;-86
2022/08/10 04:42:29;;;;;;;;;;;;;;;15.82;67.50;102519.13;5025727;28;20280;-87
2022/08/10 04:44:54;;;;;;;;;;;;;;;15.82;67.43;102530.44;4992902;28;19953;-86
2022/08/10 04:47:20;;;;;;;;;;;;;;;15.82;67.58;102532.22;4993321;28;19921;-86
2022/08/10 04:49:45;;;;;;;;;;;;;;;15.81;67.20;102520.00;4993268;28;19924;-87
2022/08/10 04:52:10;;;;;;;;;;;;;;;15.80;68.56;102523.50;4993018;28;19947;-87
2022/08/10 04:54:35;;;;;;;;;;;;;;;15.77;68.60;102515.66;4992697;28;19921;-86
2022/08/10 04:57:00;;;;;;;;;;;;;;;15.73;67.58;102513.06;4993431;28;19971;-86
2022/08/10 04:59:26;;;;;;;;;;;;;;;15.75;67.95;102513.06;4993431;28;20335;-86
2022/08/10 05:01:51;;;;;;;;;;;;;;;15.75;67.74;102511.31;4991949;28;19957;-86
2022/08/10 05:04:16;;;;;;;;;;;;;;;15.77;67.94;102515.66;4993224;28;19970;-89
2022/08/10 05:06:44;;;;;;;;;;;;;;;15.77;67.90;102519.13;4993042;28;20001;-85
2022/08/10 05:09:09;;;;;;;;;;;;;;;15.77;67.90;102516.53;4991323;28;20301;-84
2022/08/10 05:11:34;;;;;;;;;;;;;;;15.80;69.08;102513.03;4989475;28;19922;-83
2022/08/10 05:13:59;;;;;;;;;;;;;;;15.80;68.44;102516.50;4987164;28;19972;-89
2022/08/10 05:16:25;;;;;;;;;;;;;;;15.83;67.86;102515.59;4982224;28;20320;-86
2022/08/10 05:18:50;;;;;;;;;;;;;;;15.85;67.89;102511.25;4992652;28;20402;-85
2022/08/10 05:21:16;;;;;;;;;;;;;;;15.87;68.96;102520.84;4991382;28;19914;-86
2022/08/10 05:23:41;;;;;;;;;;;;;;;15.91;69.48;102516.44;4991990;28;19917;-85
2022/08/10 05:26:06;;;;;;;;;;;;;;;15.91;71.06;102516.44;4992749;28;19918;-86
2022/08/10 05:28:31;;;;;;;;;;;;;;;15.92;72.44;102519.91;4975964;28;20294;-86
2022/08/10 05:30:56;;;;;;;;;;;;;;;15.92;74.39;102526.03;4992602;28;19918;-85
2022/08/10 05:33:22;;;;;;;;;;;;;;;15.90;73.30;102523.41;4992791;28;20004;-86
2022/08/10 05:35:47;;;;;;;;;;;;;;;15.93;73.82;102532.13;4991803;28;19928;-85
2022/08/10 05:38:12;;;;;;;;;;;;;;;15.94;74.93;102532.09;4992708;28;19914;-85
2022/08/10 05:40:39;;;;;;;;;;;;;;;15.94;75.58;102531.22;4992582;28;20097;-85
2022/08/10 05:43:05;;;;;;;;;;;;;;;15.98;75.25;102543.41;4991337;28;20328;-86
2022/08/10 05:45:30;;;;;;;;;;;;;;;16.01;74.02;102531.16;4992650;28;19917;-86
2022/08/10 05:47:56;;;;;;;;;;;;;;;16.07;75.86;102530.22;4991980;28;19953;-81
2022/08/10 05:50:24;;;;;;;;;;;;;;;16.11;75.50;102526.66;4991681;28;20343;-83
2022/08/10 05:52:49;;;;;;;;;;;;;;;16.15;74.03;102528.38;4992595;28;19956;-91
2022/08/10 05:55:15;;;;;;;;;;;;;;;16.17;76.22;102530.94;4992949;28;19945;-87
2022/08/10 05:57:41;;;;;;;;;;;;;;;16.21;74.67;102530.91;4990743;28;19918;-87
2022/08/10 06:00:08;;;;;;;;;;;;;;;16.26;75.33;102535.22;4992251;28;19914;-86
2022/08/10 06:02:42;;;;;;;;;;;;;;;16.30;75.14;102539.56;4992774;28;19925;-87
2022/08/10 06:05:12;;;;;;;;;;;;;;;16.36;74.24;102527.25;4991249;28;20282;-89
2022/08/10 06:07:46;;;;;;;;;;;;;;;16.40;75.92;102527.19;4992797;28;19922;-88
2022/08/10 06:10:13;;;;;;;;;;;;;;;16.46;75.01;102530.59;4992237;28;20000;-87
2022/08/10 06:12:39;;;;;;;;;;;;;;;16.52;75.82;102534.88;4991564;28;19949;-86
2022/08/10 06:15:05;;;;;;;;;;;;;;;16.58;74.69;102533.94;4991699;28;20357;-86
2022/08/10 06:17:30;;;;;;;;;;;;;;;16.61;75.22;102529.53;4991900;28;19967;-82
2022/08/10 06:19:56;;;;;;;;;;;;;;;16.67;74.29;102534.69;4991244;28;19942;-83
2022/08/10 06:22:22;;;;;;;;;;;;;;;16.72;74.09;102528.53;4991035;28;19913;-83
2022/08/10 06:24:48;;;;;;;;;;;;;;;16.77;74.34;102532.81;4991151;28;19920;-83
2022/08/10 06:27:13;;;;;;;;;;;;;;;16.85;74.11;102532.69;4991837;28;19974;-83
2022/08/10 06:29:40;;;;;;;;;;;;;;;16.93;73.92;102540.44;4991848;28;19918;-83
2022/08/10 06:32:07;;;;;;;;;;;;;;;17.00;73.94;102538.63;4990398;28;20769;-83
2022/08/10 06:34:34;;;;;;;;;;;;;;;17.08;73.48;102540.25;4991962;28;19959;-83
2022/08/10 06:37:03;;;;;;;;;;;;;;;17.13;73.49;102534.94;4991545;28;20314;-83
2022/08/10 06:39:29;;;;;;;;;;;;;;;17.20;72.97;102535.69;4986789;28;19918;-84
2022/08/10 06:41:58;;;;;;;;;;;;;;;17.30;72.96;102526.78;4971465;28;20045;-84
2022/08/10 06:44:27;;;;;;;;;;;;;;;17.38;73.04;102527.50;4972419;28;19971;-81
2022/08/10 06:46:53;;;;;;;;;;;;;;;17.48;72.73;102525.59;4971883;28;20428;-80
2022/08/10 06:49:21;;;;;;;;;;;;;;;17.67;72.73;102531.41;4976055;28;19913;-81
2022/08/10 06:51:48;;;;;;;;;;;;;;;18.43;70.98;102524.66;4991694;28;19960;-81
2022/08/10 06:54:16;;;;;;;;;;;;;;;20.21;66.71;102529.91;4991122;28;19918;-80
2022/08/10 06:56:43;;;;;;;;;;;;;;;22.49;60.87;102528.44;4991821;28;19913;-81
2022/08/10 06:59:10;;;;;;;;;;;;;;;24.42;55.83;102537.06;4991096;28;19928;-81
2022/08/10 07:01:38;;;;;;;;;;;;;;;25.73;49.75;102537.69;4990677;28;19914;-81
2022/08/10 07:04:11;;;;;;;;;;;;;;;26.64;51.90;102531.88;4985587;28;20363;-80
2022/08/10 07:06:40;;;;;;;;;;;;;;;27.69;47.76;102540.00;4971969;28;20370;-82
2022/08/10 07:09:05;;;;;;;;;;;;;;;28.29;40.56;102544.28;4970934;28;19914;-81
2022/08/10 07:11:31;;;;;;;;;;;;;;;27.94;44.56;102549.13;4972253;28;20004;-81
2022/08/10 07:13:58;;;;;;;;;;;;;;;27.55;41.74;102541.72;4971613;28;20378;-82
2022/08/10 07:16:27;;;;;;;;;;;;;;;26.83;45.36;102541.47;4971815;28;19914;-81
2022/08/10 07:18:53;;;;;;;;;;;;;;;26.45;45.10;102536.53;4971890;28;19914;-83
2022/08/10 07:21:20;;;;;;;;;;;;;;;25.43;45.57;102548.13;4971175;28;19921;-80
2022/08/10 07:23:47;;;;;;;;;;;;;;;24.31;48.92;102549.97;4984718;28;19917;-80
2022/08/10 07:26:12;;;;;;;;;;;;;;;23.54;50.61;102544.50;4990559;28;19921;-81
2022/08/10 07:28:38;;;;;;;;;;;;;;;23.23;52.73;102544.97;4990318;28;19914;-80
2022/08/10 07:31:04;;;;;;;;;;;;;;;23.01;53.67;102547.59;4992078;28;19918;-80
2022/08/10 07:33:30;;;;;;;;;;;;;;;22.57;53.76;102546.69;4990724;28;19913;-80
2022/08/10 07:35:56;;;;;;;;;;;;;;;22.03;54.86;102551.31;4989625;28;20362;-80
2022/08/10 07:38:25;;;;;;;;;;;;;;;21.72;55.19;102552.44;4990947;28;19928;-86
2022/08/10 07:40:51;;;;;;;;;;;;;;;21.65;55.94;102548.28;4990821;28;19914;-82
2022/08/10 07:43:20;;;;;;;;;;;;;;;21.60;55.71;102551.94;4990027;28;19922;-80
2022/08/10 07:45:46;;;;;;;;;;;;;;;21.51;56.17;102540.78;4990741;28;19920;-81
2022/08/10 07:48:21;;;;;;;;;;;;;;;21.45;56.92;102547.16;4983478;28;20337;-82
2022/08/10 07:50:47;;;;;;;;;;;;;;;21.51;56.38;102541.66;4970985;28;19914;-82
2022/08/10 07:53:16;;;;;;;;;;;;;;;21.42;56.20;102547.28;4971005;28;19983;-81
2022/08/10 07:55:42;;;;;;;;;;;;;;;21.50;56.23;102547.88;4976532;28;20303;-82
2022/08/10 07:58:08;;;;;;;;;;;;;;;21.50;55.84;102553.16;4989470;28;19918;-82
2022/08/10 08:00:34;;;;;;;;;;;;;;;21.50;56.20;102550.50;4990992;28;19954;-81
2022/08/10 08:03:01;;;;;;;;;;;;;;;21.51;56.18;102549.59;4990419;28;19939;-81
2022/08/10 08:05:27;;;;;;;;;;;;;;;21.63;56.03;102553.59;4990510;28;19914;-83
2022/08/10 08:07:54;;;;;;;;;;;;;;;21.73;56.37;102551.50;4990392;28;19941;-84
2022/08/10 08:10:21;;;;;;;;;;;;;;;21.81;56.73;102554.75;4990022;28;19918;-80
2022/08/10 08:12:46;;;;;;;;;;;;;;;21.93;55.52;102542.88;4990390;28;19914;-83
2022/08/10 08:15:13;;;;;;;;;;;;;;;22.08;55.54;102556.44;4990180;28;20285;-82
2022/08/10 08:17:39;;;;;;;;;;;;;;;22.24;55.74;102552.31;4991573;28;19921;-82
2022/08/10 08:20:05;;;;;;;;;;;;;;;22.37;55.66;102553.56;4990002;28;19922;-83
2022/08/10 08:22:31;;;;;;;;;;;;;;;22.53;55.27;102553.00;4990550;28;19913;-83
2022/08/10 08:24:57;;;;;;;;;;;;;;;22.72;53.10;102554.94;4989289;28;19924;-83
2022/08/10 08:27:23;;;;;;;;;;;;;;;22.78;53.55;102549.38;4990725;28;19916;-83
2022/08/10 08:29:49;;;;;;;;;;;;;;;22.81;52.88;102549.28;4990066;28;19914;-83
2022/08/10 08:32:21;;;;;;;;;;;;;;;22.82;53.68;102551.00;4989870;28;19917;-84
2022/08/10 08:34:47;;;;;;;;;;;;;;;22.91;53.31;102544.47;4992483;28;19910;-83
2022/08/10 08:37:15;;;;;;;;;;;;;;;23.01;53.39;102544.94;4990094;28;19917;-83
2022/08/10 08:39:41;;;;;;;;;;;;;;;23.10;52.04;102542.78;4989548;28;19920;-84
2022/08/10 08:42:24;;;;;;;;;;;;;;;23.17;51.63;102542.53;4990192;28;19913;-85
2022/08/10 08:45:02;;;;;;;;;;;;;;;23.24;51.75;102544.88;4991332;28;19914;-83
2022/08/10 08:47:38;;;;;;;;;;;;;;;23.26;51.75;102544.81;4992404;28;19935;-83
2022/08/10 08:50:06;;;;;;;;;;;;;;;23.40;51.54;102544.25;4993444;28;19964;-84
2022/08/10 08:52:32;;;;;;;;;;;;;;;23.59;51.48;102546.94;4992851;28;20381;-84
2022/08/10 08:55:03;;;;;;;;;;;;;;;23.76;51.70;102543.53;4993385;28;19960;-83
2022/08/10 08:57:46;;;;;;;;;;;;;;;23.96;50.86;102547.16;4994314;28;19914;-84
2022/08/10 09:00:16;;;;;;;;;;;;;;;24.19;49.49;102546.97;4992431;28;19914;-85
2022/08/10 09:02:59;;;;;;;;;;;;;;;24.32;50.31;102541.94;4994095;28;19913;-83
2022/08/10 09:05:43;;;;;;;;;;;;;;;24.43;48.98;102541.41;4993115;28;19920;-83
2022/08/10 09:08:11;;;;;;;;;;;;;;;24.50;48.24;102536.69;4992097;28;20289;-83
2022/08/10 09:10:50;;;;;;;;;;;;;;;24.62;48.99;102536.09;4992852;28;20365;-85
2022/08/10 09:13:33;;;;;;;;;;;;;;;24.72;48.61;102531.25;4993728;28;19953;-85
2022/08/10 09:16:16;;;;;;;;;;;;;;;24.75;47.15;102524.91;4990512;28;19913;-85
2022/08/10 09:18:54;;;;;;;;;;;;;;;24.81;47.87;102519.31;4982519;28;19918;-85
2022/08/10 09:21:46;;;;;;;;;;;;;;;24.91;47.59;102530.31;4984851;28;19925;-86
2022/08/10 09:24:17;;;;;;;;;;;;;;;25.06;47.43;102526.91;4993382;28;20361;-86
2022/08/10 09:26:50;;;;;;;;;;;;;;;25.10;45.89;102524.97;4993458;28;20365;-86
2022/08/10 09:29:23;;;;;;;;;;;;;;;25.13;47.63;102522.16;4992862;28;20365;-85
2022/08/10 09:32:03;;;;;;;;;;;;;;;25.29;47.82;102520.41;4988298;28;19960;-86
2022/08/10 09:34:32;;;;;;;;;;;;;;;25.51;46.50;102515.81;4991172;28;19913;-86
2022/08/10 09:37:23;;;;;;;;;;;;;;;25.47;44.96;102516.91;4983814;28;19918;-86
2022/08/10 09:39:49;;;;;;;;;;;;;;;25.31;44.73;102509.72;4975721;28;19914;-87
2022/08/10 09:42:22;;;;;;;;;;;;;;;25.37;46.29;102508.56;4970894;28;19921;-86
2022/08/10 09:44:50;;;;;;;;;;;;;;;25.63;46.68;102516.97;4987042;28;19918;-86
2022/08/10 09:47:18;;;;;;;;;;;;;;;25.87;46.48;102510.34;4992435;28;19952;-86
2022/08/10 09:49:46;;;;;;;;;;;;;;;26.06;43.51;102509.34;4990310;28;20050;-86
2022/08/10 09:52:17;;;;;;;;;;;;;;;26.18;44.58;102494.53;4990738;28;20352;-86
2022/08/10 09:54:53;;;;;;;;;;;;;;;26.34;45.22;102491.88;4991209;28;19913;-85
2022/08/10 09:57:32;;;;;;;;;;;;;;;26.61;43.62;102501.91;4991902;28;19917;-87
2022/08/10 10:00:11;;;;;;;;;;;;;;;26.64;42.23;102502.56;4992455;28;20293;-86
2022/08/10 10:02:55;;;;;;;;;;;;;;;26.66;40.75;102497.16;4992118;28;20377;-86
2022/08/10 10:05:26;;;;;;;;;;;;;;;26.75;42.70;102485.97;4992499;28;19967;-85
2022/08/10 10:08:03;;;;;;;;;;;;;;;26.80;41.39;102491.03;4992104;28;19918;-86
2022/08/10 10:10:31;;;;;;;;;;;;;;;26.83;41.56;102488.22;4992057;28;19914;-87
2022/08/10 10:13:06;;;;;;;;;;;;;;;26.84;38.71;102481.94;4992147;28;19922;-87
2022/08/10 10:15:49;;;;;;;;;;;;;;;26.93;40.35;102477.88;4991830;28;19961;-86
2022/08/10 10:18:29;;;;;;;;;;;;;;;27.10;39.63;102485.72;4991794;28;19976;-87
2022/08/10 10:21:00;;;;;;;;;;;;;;;27.32;39.03;102481.75;4992025;28;19918;-86
2022/08/10 10:23:44;;;;;;;;;;;;;;;27.55;40.44;102476.84;4992069;28;19914;-86
2022/08/10 10:26:18;;;;;;;;;;;;;;;27.77;39.06;102467.50;4990978;28;19975;-83
2022/08/10 10:28:46;;;;;;;;;;;;;;;27.95;36.41;102463.66;4991765;28;20370;-85
2022/08/10 10:31:11;;;;;;;;;;;;;;;27.85;36.97;102457.22;4990949;28;19913;-85
2022/08/10 10:33:43;;;;;;;;;;;;;;;27.82;35.85;102462.72;4991885;28;20289;-87
2022/08/10 10:36:09;;;;;;;;;;;;;;;27.93;36.48;102452.22;4991711;28;19960;-87
2022/08/10 10:38:35;;;;;;;;;;;;;;;27.73;36.37;102453.50;4991507;28;20250;-88
2022/08/10 10:41:12;;;;;;;;;;;;;;;27.88;36.00;102455.19;4991987;28;19913;-86
2022/08/10 10:43:40;;;;;;;;;;;;;;;27.98;35.70;102458.13;4991530;28;19922;-87
2022/08/10 10:46:08;;;;;;;;;;;;;;;28.03;35.83;102444.50;4982953;28;20037;-86
2022/08/10 10:48:38;;;;;;;;;;;;;;;28.12;36.59;102441.25;4972409;28;19957;-86
2022/08/10 10:51:17;;;;;;;;;;;;;;;28.25;35.97;102441.31;4972363;28;19914;-88
2022/08/10 10:53:50;;;;;;;;;;;;;;;28.42;35.74;102439.34;4986458;28;19914;-89
2022/08/10 10:56:28;;;;;;;;;;;;;;;28.42;34.14;102432.19;4992481;28;19913;-90
2022/08/10 10:59:08;;;;;;;;;;;;;;;28.59;35.89;102424.88;4993584;28;19914;-86
2022/08/10 11:01:43;;;;;;;;;;;;;;;28.82;34.83;102429.50;4992027;28;19953;-85
2022/08/10 11:04:08;;;;;;;;;;;;;;;28.99;32.87;102432.84;4991434;28;19917;-85
2022/08/10 11:06:52;;;;;;;;;;;;;;;28.90;33.77;102425.47;4990267;28;19929;-85
2022/08/10 11:09:22;;;;;;;;;;;;;;;28.74;32.60;102420.31;4991054;28;19914;-86
2022/08/10 11:11:53;;;;;;;;;;;;;;;28.93;34.48;102418.09;4990985;28;20008;-86
2022/08/10 11:14:32;;;;;;;;;;;;;;;29.03;32.91;102414.78;4990942;28;19914;-86
2022/08/10 11:17:01;;;;;;;;;;;;;;;29.04;31.24;102417.38;4972969;28;19913;-86
2022/08/10 11:19:44;;;;;;;;;;;;;;;29.05;30.67;102407.50;4971616;28;19959;-86
2022/08/10 11:22:29;;;;;;;;;;;;;;;29.06;31.82;102403.88;4970807;28;20032;-85
2022/08/10 11:25:01;;;;;;;;;;;;;;;29.13;31.52;102414.03;5008768;23;19922;-85
2022/08/10 11:27:42;;;;;;;;;;;;;;;29.34;32.46;102412.66;4951755;28;20414;-85
2022/08/10 11:30:09;;;;;;;;;;;;;;;29.51;31.94;102406.09;4952555;28;19911;-85
2022/08/10 11:32:42;;;;;;;;;;;;;;;29.38;32.15;102403.47;4952574;28;19919;-85
2022/08/10 11:35:33;;;;;;;;;;;;;;;29.50;33.55;102399.91;4951726;28;20408;-85
2022/08/10 11:38:07;;;;;;;;;;;;;;;29.73;32.94;102408.09;4952093;28;19923;-86
2022/08/10 11:40:52;;;;;;;;;;;;;;;29.88;33.00;102408.78;4971560;28;19913;-85
2022/08/10 11:43:20;;;;;;;;;;;;;;;29.83;31.86;102408.28;4970873;28;20376;-86
2022/08/10 11:45:48;;;;;;;;;;;;;;;29.84;32.72;102391.22;4950719;28;19922;-86
2022/08/10 11:48:22;;;;;;;;;;;;;;;29.97;31.65;102389.41;4933425;28;19919;-86
2022/08/10 11:50:51;;;;;;;;;;;;;;;29.89;30.86;102400.63;4933182;29;20314;-86
2022/08/10 11:53:19;;;;;;;;;;;;;;;29.82;30.16;102396.69;4933160;28;19915;-86
2022/08/10 11:55:48;;;;;;;;;;;;;;;29.92;31.69;102393.34;4932397;29;19953;-86
2022/08/10 12:01:02;;;;;;;;;;;;;;;30.32;32.22;102391.25;4933433;29;19922;-86
2022/08/10 12:03:30;;;;;;;;;;;;;;;30.40;31.73;102385.31;4935778;28;19914;-86
2022/08/10 12:05:56;;;;;;;;;;;;;;;30.50;31.93;102382.81;4952184;28;19922;-86
2022/08/10 12:08:23;;;;;;;;;;;;;;;30.62;32.32;102387.25;4953449;28;19914;-85
2022/08/10 12:10:49;;;;;;;;;;;;;;;30.74;32.76;102385.44;4951371;28;19918;-85
2022/08/10 12:13:20;;;;;;;;;;;;;;;30.84;32.21;102388.25;4952252;28;19952;-85
2022/08/10 12:16:02;;;;;;;;;;;;;;;30.87;30.99;102381.81;4940387;28;19921;-90
2022/08/10 12:18:46;;;;;;;;;;;;;;;30.85;30.65;102373.03;4933168;28;20363;-86
2022/08/10 12:21:17;;;;;;;;;;;;;;;31.00;31.16;102377.19;4943758;28;19914;-85
2022/08/10 12:23:47;;;;;;;;;;;;;;;31.15;29.97;102369.78;4954503;28;20005;-86
2022/08/10 12:26:12;;;;;;;;;;;;;;;31.24;31.10;102374.41;4955244;28;19918;-86
2022/08/10 12:28:49;;;;;;;;;;;;;;;31.31;31.61;102371.22;4956201;28;19926;-84
2022/08/10 12:31:15;;;;;;;;;;;;;;;31.42;31.43;102365.84;4954367;28;19914;-85
2022/08/10 12:33:47;;;;;;;;;;;;;;;31.23;29.45;102367.34;4955473;28;20345;-85
2022/08/10 12:36:15;;;;;;;;;;;;;;;31.28;28.87;102364.28;4956028;28;19919;-87
2022/08/10 12:38:48;;;;;;;;;;;;;;;31.15;29.82;102364.41;4954651;28;20036;-85
2022/08/10 12:41:18;;;;;;;;;;;;;;;31.05;28.51;102350.00;4954802;28;19950;-85
2022/08/10 12:43:55;;;;;;;;;;;;;;;31.00;30.39;102357.56;4955083;28;19956;-85
2022/08/10 12:46:39;;;;;;;;;;;;;;;31.01;30.37;102348.53;4952894;28;19983;-86
2022/08/10 12:49:36;;;;;;;;;;;;;;;31.07;31.05;102340.88;4953750;28;19934;-84